Time;durP1;ratioP1;P1;durP2;ratioP2;P2;SDS_P1;SDS_P2;PMS_P1;PMS_P2;Temp;Humidity;BMP_temperature;BMP_pressure;BME280_temperature;BME280_humidity;BME280_pressure;Samples;Min_cycle;Max_cycle;Signal;HPM_P1;HPM_P2
2022/11/21 00:01:53;;;;;;;104.72;43.15;;;0.60;99.90;;;;;;4990967;28;20134;-64
2022/11/21 00:04:18;;;;;;;99.78;44.90;;;0.60;99.90;;;;;;4993075;28;20052;-61
2022/11/21 00:06:44;;;;;;;93.70;44.03;;;0.60;99.90;;;;;;4990698;28;20022;-57
2022/11/21 00:09:09;;;;;;;99.03;44.95;;;0.50;99.90;;;;;;4990578;28;20072;-59
2022/11/21 00:11:35;;;;;;;96.32;42.40;;;0.50;99.90;;;;;;4990798;28;20022;-60
2022/11/21 00:14:01;;;;;;;93.95;41.80;;;0.40;99.90;;;;;;4990699;28;20080;-63
2022/11/21 00:16:26;;;;;;;92.43;40.47;;;0.40;99.90;;;;;;4990398;28;20026;-68
2022/11/21 00:18:52;;;;;;;93.75;42.30;;;0.40;99.90;;;;;;4990663;28;20418;-62
2022/11/21 00:21:19;;;;;;;94.43;43.55;;;0.30;99.90;;;;;;4989143;28;20037;-61
2022/11/21 00:23:47;;;;;;;103.72;44.42;;;0.30;99.90;;;;;;4989774;28;20029;-59
2022/11/21 00:26:14;;;;;;;103.00;45.03;;;0.30;99.90;;;;;;4990764;28;20489;-59
2022/11/21 00:28:40;;;;;;;102.90;44.17;;;0.30;99.90;;;;;;4990610;28;20027;-62
2022/11/21 00:31:06;;;;;;;93.97;42.85;;;0.30;99.90;;;;;;4990241;28;20054;-58
2022/11/21 00:33:35;;;;;;;98.75;44.63;;;0.20;99.90;;;;;;4990310;28;20025;-57
2022/11/21 00:36:08;;;;;;;93.30;40.92;;;0.20;99.90;;;;;;4990131;28;20034;-59
2022/11/21 00:38:34;;;;;;;95.43;43.92;;;0.10;99.90;;;;;;4989557;28;20878;-62
2022/11/21 00:40:59;;;;;;;97.05;41.97;;;0.00;99.90;;;;;;4989709;28;20191;-61
2022/11/21 00:43:25;;;;;;;96.43;44.30;;;0.00;99.90;;;;;;4990074;28;20105;-62
2022/11/21 00:45:51;;;;;;;97.88;43.95;;;-0.10;99.90;;;;;;4988988;28;20117;-64
2022/11/21 00:48:17;;;;;;;95.32;42.65;;;-0.20;99.90;;;;;;4986309;28;20073;-64
2022/11/21 00:50:42;;;;;;;105.72;44.88;;;-0.20;99.90;;;;;;4989126;28;20436;-57
2022/11/21 00:53:08;;;;;;;101.43;43.75;;;-0.10;99.90;;;;;;4989494;28;20105;-60
2022/11/21 00:55:36;;;;;;;104.80;44.75;;;0.00;99.90;;;;;;4971890;28;20029;-61
2022/11/21 00:58:01;;;;;;;106.10;47.05;;;0.00;99.90;;;;;;4989104;28;20085;-61
2022/11/21 01:00:27;;;;;;;104.35;47.85;;;0.00;99.90;;;;;;4990417;28;20557;-57
2022/11/21 01:02:53;;;;;;;109.55;47.85;;;0.00;99.90;;;;;;4955214;28;20065;-64
2022/11/21 01:05:18;;;;;;;116.13;49.05;;;0.00;99.90;;;;;;4988380;28;20109;-65
2022/11/21 01:07:46;;;;;;;115.60;47.92;;;0.00;99.90;;;;;;4989655;28;20041;-67
2022/11/21 01:10:12;;;;;;;113.57;47.78;;;0.00;99.90;;;;;;4990118;28;20019;-66
2022/11/21 01:12:38;;;;;;;100.00;42.75;;;0.00;99.90;;;;;;4990132;28;20022;-65
2022/11/21 01:15:04;;;;;;;93.00;40.30;;;-0.10;99.90;;;;;;4989995;28;20030;-65
2022/11/21 01:17:32;;;;;;;102.65;45.28;;;-0.10;99.90;;;;;;4989647;28;20034;-62
2022/11/21 01:19:57;;;;;;;115.22;46.80;;;-0.30;99.90;;;;;;4990001;28;20480;-60
2022/11/21 01:22:23;;;;;;;99.40;40.38;;;-0.30;99.90;;;;;;4989952;28;20151;-63
2022/11/21 01:24:49;;;;;;;93.93;38.38;;;-0.30;99.90;;;;;;4990100;28;20057;-65
2022/11/21 01:27:14;;;;;;;90.63;39.38;;;-0.40;99.90;;;;;;4989911;28;20474;-61
2022/11/21 01:29:40;;;;;;;89.95;39.42;;;-0.50;99.90;;;;;;4989757;28;20054;-65
2022/11/21 01:32:06;;;;;;;90.50;37.97;;;-0.50;99.90;;;;;;4989770;28;20544;-67
2022/11/21 01:34:31;;;;;;;91.20;41.35;;;-0.50;99.90;;;;;;4990626;28;20089;-60
2022/11/21 01:36:57;;;;;;;93.50;40.35;;;-0.40;99.90;;;;;;4993584;28;20042;-59
2022/11/21 01:39:23;;;;;;;100.47;42.45;;;-0.40;99.90;;;;;;4993799;28;20026;-61
2022/11/21 01:41:48;;;;;;;90.53;41.58;;;-0.30;99.90;;;;;;4993573;28;20034;-58
2022/11/21 01:44:21;;;;;;;97.18;40.95;;;-0.30;99.90;;;;;;4976280;28;20034;-65
2022/11/21 01:46:48;;;;;;;86.78;41.30;;;-0.40;99.90;;;;;;4993363;28;20030;-63
2022/11/21 01:49:29;;;;;;;87.43;38.45;;;-0.50;99.90;;;;;;4993439;28;20034;-61
2022/11/21 01:52:16;;;;;;;84.80;37.90;;;-0.60;99.90;;;;;;4993444;28;20065;-65
2022/11/21 01:54:45;;;;;;;88.20;39.05;;;-0.70;99.90;;;;;;4992296;28;20031;-64
2022/11/21 01:57:30;;;;;;;90.15;38.47;;;-0.70;99.90;;;;;;4993294;28;20129;-59
2022/11/21 02:00:07;;;;;;;77.20;35.33;;;-0.70;99.90;;;;;;4993276;28;20029;-63
2022/11/21 02:02:36;;;;;;;83.10;36.80;;;-0.80;99.90;;;;;;4976021;28;20026;-59
2022/11/21 02:05:05;;;;;;;84.25;36.90;;;-0.80;99.90;;;;;;4993213;28;20481;-63
2022/11/21 02:07:35;;;;;;;85.55;37.60;;;-0.70;99.90;;;;;;4991744;28;20038;-65
2022/11/21 02:10:03;;;;;;;87.82;39.70;;;-0.70;99.90;;;;;;4993384;28;20026;-67
2022/11/21 02:12:38;;;;;;;83.50;35.60;;;-0.80;99.90;;;;;;4992952;28;20034;-62
2022/11/21 02:15:04;;;;;;;78.38;36.85;;;-0.80;99.90;;;;;;4993162;28;20497;-64
2022/11/21 02:17:30;;;;;;;86.67;40.50;;;-0.80;99.90;;;;;;5002627;28;20045;-63
2022/11/21 02:20:02;;;;;;;86.93;39.45;;;-0.90;99.90;;;;;;5012501;28;20465;-66
2022/11/21 02:22:50;;;;;;;96.10;41.65;;;-1.00;99.90;;;;;;5012477;28;20420;-60
2022/11/21 02:25:21;;;;;;;111.80;52.35;;;-1.00;99.90;;;;;;4994654;28;20022;-63
2022/11/21 02:27:50;;;;;;;122.50;55.47;;;-1.10;99.90;;;;;;5012352;28;20030;-65
2022/11/21 02:30:16;;;;;;;119.75;53.90;;;-1.00;99.90;;;;;;5012124;28;20125;-61
2022/11/21 02:32:47;;;;;;;117.45;54.78;;;-1.00;99.90;;;;;;5012177;28;20033;-58
2022/11/21 02:35:15;;;;;;;122.22;53.53;;;-1.10;99.90;;;;;;5012367;28;20025;-65
2022/11/21 02:37:41;;;;;;;108.63;53.08;;;-1.10;99.90;;;;;;5012229;28;20104;-68
2022/11/21 02:40:11;;;;;;;108.68;51.33;;;-1.00;99.90;;;;;;5012194;28;20080;-59
2022/11/21 02:42:44;;;;;;;107.30;50.88;;;-1.10;99.90;;;;;;5012031;28;20034;-62
2022/11/21 02:45:44;;;;;;;113.75;53.55;;;-1.20;99.90;;;;;;5012140;28;20428;-58
2022/11/21 02:48:11;;;;;;;105.20;52.60;;;-1.20;99.90;;;;;;4998509;28;20440;-60
2022/11/21 02:50:39;;;;;;;113.53;52.25;;;-1.20;99.90;;;;;;5011871;28;20030;-61
2022/11/21 02:53:08;;;;;;;115.28;51.83;;;-1.20;99.90;;;;;;5011812;28;20045;-65
2022/11/21 02:55:33;;;;;;;124.07;57.38;;;-1.10;99.90;;;;;;5011728;28;20101;-66
2022/11/21 02:58:00;;;;;;;122.97;58.15;;;-1.20;99.90;;;;;;4994109;28;20318;-61
2022/11/21 03:00:25;;;;;;;122.97;57.33;;;-1.30;99.90;;;;;;5011959;28;20128;-63
2022/11/21 03:02:52;;;;;;;118.32;56.25;;;-1.40;99.90;;;;;;4996866;28;20548;-63
2022/11/21 03:05:19;;;;;;;120.10;57.75;;;-1.40;99.90;;;;;;4992493;28;20539;-61
2022/11/21 03:07:45;;;;;;;148.80;66.13;;;-1.50;99.90;;;;;;4992248;28;20639;-64
2022/11/21 03:10:12;;;;;;;172.82;79.65;;;-1.60;99.90;;;;;;4992153;28;20022;-60
2022/11/21 03:12:40;;;;;;;189.07;82.15;;;-1.60;99.90;;;;;;4992403;28;20544;-58
2022/11/21 03:15:07;;;;;;;190.32;84.32;;;-1.50;99.90;;;;;;4992062;28;20507;-58
2022/11/21 03:17:33;;;;;;;172.23;80.25;;;-1.50;99.90;;;;;;4992113;28;20038;-60
2022/11/21 03:19:59;;;;;;;160.13;71.15;;;-1.40;99.90;;;;;;4992286;28;20531;-61
2022/11/21 03:22:25;;;;;;;148.38;71.32;;;-1.50;99.90;;;;;;4992017;28;20033;-59
2022/11/21 03:24:51;;;;;;;145.90;67.20;;;-1.50;99.90;;;;;;4992096;28;20027;-59
2022/11/21 03:27:16;;;;;;;124.97;61.55;;;-1.50;99.90;;;;;;4991919;28;20101;-56
2022/11/21 03:29:42;;;;;;;130.32;63.63;;;-1.50;99.90;;;;;;4991733;28;20069;-60
2022/11/21 03:32:08;;;;;;;130.45;61.75;;;-1.50;99.90;;;;;;4991967;28;20030;-59
2022/11/21 03:34:34;;;;;;;136.32;61.92;;;-1.60;99.90;;;;;;4991480;28;20038;-59
2022/11/21 03:36:59;;;;;;;123.75;59.10;;;-1.50;99.90;;;;;;4991662;28;20081;-59
2022/11/21 03:39:25;;;;;;;125.95;59.25;;;-1.60;99.90;;;;;;4991657;28;20085;-62
2022/11/21 03:41:51;;;;;;;109.20;55.08;;;-1.60;99.90;;;;;;4991840;28;20037;-64
2022/11/21 03:44:17;;;;;;;115.60;55.65;;;-1.60;99.90;;;;;;5006859;28;20060;-61
2022/11/21 03:46:44;;;;;;;101.97;47.65;;;-1.60;99.90;;;;;;4991811;28;20488;-61
2022/11/21 03:49:10;;;;;;;88.25;44.35;;;-1.50;99.90;;;;;;4991288;28;20034;-61
2022/11/21 03:51:38;;;;;;;91.70;43.50;;;-1.40;99.90;;;;;;4991659;28;20034;-64
2022/11/21 03:54:03;;;;;;;;;;;-1.40;99.90;;;;;;4992104;28;20038;-62
2022/11/21 03:56:30;;;;;;;78.65;35.40;;;-1.30;99.90;;;;;;4990974;28;19916;-65
2022/11/21 03:58:56;;;;;;;78.00;36.85;;;-1.20;99.90;;;;;;4991286;28;20042;-65
2022/11/21 04:01:22;;;;;;;82.18;37.10;;;-1.10;99.90;;;;;;4991461;28;20029;-62
2022/11/21 04:03:48;;;;;;;75.68;36.40;;;-1.00;99.90;;;;;;4991444;28;20101;-58
2022/11/21 04:06:16;;;;;;;87.80;36.95;;;-0.90;99.90;;;;;;4991715;28;20034;-59
2022/11/21 04:08:42;;;;;;;73.47;34.35;;;-0.90;99.90;;;;;;4991131;28;20485;-64
2022/11/21 04:11:08;;;;;;;79.10;36.90;;;-0.90;99.90;;;;;;4991227;28;20063;-62
2022/11/21 04:13:34;;;;;;;75.30;35.70;;;-0.90;99.90;;;;;;4991240;28;20058;-60
2022/11/21 04:16:04;;;;;;;84.63;37.65;;;-0.90;99.90;;;;;;4991168;28;20034;-66
2022/11/21 04:18:30;;;;;;;79.00;36.08;;;-0.90;99.90;;;;;;4988801;28;20053;-64
2022/11/21 04:21:00;;;;;;;80.82;35.08;;;-0.90;99.90;;;;;;4990701;28;20042;-64
2022/11/21 04:23:26;;;;;;;82.47;38.67;;;-0.80;99.90;;;;;;4991113;28;20023;-61
2022/11/21 04:25:52;;;;;;;82.20;35.77;;;-0.70;99.90;;;;;;4991006;28;20097;-59
2022/11/21 04:28:18;;;;;;;87.82;38.30;;;-0.70;99.90;;;;;;4990908;28;20050;-56
2022/11/21 04:30:44;;;;;;;84.90;39.58;;;-0.60;99.90;;;;;;4990736;28;20121;-64
2022/11/21 04:33:12;;;;;;;87.85;39.28;;;-0.50;99.90;;;;;;4990682;28;20445;-59
2022/11/21 04:35:37;;;;;;;92.28;39.78;;;-0.40;99.90;;;;;;4990822;28;20031;-61
2022/11/21 04:38:03;;;;;;;90.10;39.78;;;-0.40;99.90;;;;;;4990716;28;20116;-59
2022/11/21 04:40:29;;;;;;;92.97;40.40;;;-0.30;99.90;;;;;;4990634;28;20369;-59
2022/11/21 04:42:55;;;;;;;101.40;42.70;;;-0.30;99.90;;;;;;4990764;28;20030;-58
2022/11/21 04:45:20;;;;;;;86.53;40.35;;;-0.30;99.90;;;;;;4973473;28;20556;-62
2022/11/21 04:47:48;;;;;;;84.07;38.65;;;-0.30;99.90;;;;;;4990451;28;20026;-61
2022/11/21 04:50:15;;;;;;;112.85;50.65;;;-0.30;99.90;;;;;;4990801;28;20050;-60
2022/11/21 04:52:41;;;;;;;98.13;45.92;;;-0.50;99.90;;;;;;4990472;28;20086;-63
2022/11/21 04:55:07;;;;;;;106.22;51.38;;;-0.70;99.90;;;;;;4990528;28;20026;-63
2022/11/21 04:57:33;;;;;;;95.37;42.40;;;-0.70;99.90;;;;;;4990920;28;20045;-61
2022/11/21 04:59:59;;;;;;;85.70;39.08;;;-0.70;99.90;;;;;;4990467;28;20269;-59
2022/11/21 05:02:25;;;;;;;91.35;41.60;;;-0.70;99.90;;;;;;4990337;28;20034;-59
2022/11/21 05:04:51;;;;;;;87.35;40.40;;;-0.60;99.90;;;;;;4990318;28;20105;-61
2022/11/21 05:07:17;;;;;;;93.03;44.33;;;-0.60;99.90;;;;;;4990327;28;20031;-63
2022/11/21 05:09:43;;;;;;;94.90;42.88;;;-0.50;99.90;;;;;;4991667;28;20031;-58
2022/11/21 05:14:54;;;;;;;93.40;42.65;;;-0.50;99.90;;;;;;4994625;28;20063;-64
2022/11/21 05:17:20;;;;;;;95.35;44.13;;;-0.50;99.90;;;;;;4993026;28;20070;-64
2022/11/21 05:19:46;;;;;;;90.63;43.53;;;-0.50;99.90;;;;;;4994440;28;20065;-68
2022/11/21 05:22:12;;;;;;;99.97;49.10;;;-0.60;99.90;;;;;;4994403;28;20027;-62
2022/11/21 05:24:38;;;;;;;94.00;44.75;;;-0.70;99.90;;;;;;4994190;28;20477;-65
2022/11/21 05:27:04;;;;;;;92.85;42.17;;;-0.80;99.90;;;;;;4994351;28;20030;-64
2022/11/21 05:29:30;;;;;;;85.05;41.00;;;-0.80;99.90;;;;;;4993788;28;20062;-66
2022/11/21 05:31:56;;;;;;;83.50;41.38;;;-0.90;99.90;;;;;;4994127;28;20476;-65
2022/11/21 05:34:22;;;;;;;92.22;44.08;;;-0.90;99.90;;;;;;4994206;28;20058;-66
2022/11/21 05:36:55;;;;;;;110.72;52.83;;;-0.90;99.90;;;;;;4993993;28;20037;-64
2022/11/21 05:39:21;;;;;;;107.72;51.17;;;-1.00;99.90;;;;;;4992443;28;20493;-59
2022/11/21 05:41:47;;;;;;;114.82;54.60;;;-1.30;99.90;;;;;;4994058;28;20118;-57
2022/11/21 05:44:13;;;;;;;115.93;56.97;;;-1.30;99.90;;;;;;4993519;28;20022;-58
2022/11/21 05:46:41;;;;;;;120.10;56.70;;;-1.40;99.90;;;;;;4976275;28;20119;-60
2022/11/21 05:49:07;;;;;;;128.10;57.05;;;-1.40;99.90;;;;;;4993677;28;20119;-59
2022/11/21 05:51:33;;;;;;;125.63;57.17;;;-1.40;99.90;;;;;;4993079;28;20027;-59
2022/11/21 05:53:59;;;;;;;107.90;47.10;;;-1.30;99.90;;;;;;4992355;28;20034;-67
2022/11/21 05:56:25;;;;;;;106.15;48.20;;;-1.10;99.90;;;;;;4993913;28;20026;-63
2022/11/21 05:58:54;;;;;;;114.28;49.08;;;-1.00;99.90;;;;;;4993091;28;20042;-65
2022/11/21 06:04:07;;;;;;;113.40;50.15;;;-1.00;99.90;;;;;;4962725;28;20065;-60
2022/11/21 06:06:33;;;;;;;115.97;50.67;;;-0.90;99.90;;;;;;4993672;28;20043;-62
2022/11/21 06:08:58;;;;;;;130.20;54.22;;;-1.00;99.90;;;;;;5008010;28;20725;-62
2022/11/21 06:11:24;;;;;;;125.70;55.85;;;-1.00;99.90;;;;;;4992381;28;20033;-65
2022/11/21 06:13:51;;;;;;;153.10;62.65;;;-1.00;99.90;;;;;;4982490;28;20045;-64
2022/11/21 06:16:18;;;;;;;;;;;-1.00;99.90;;;;;;4994005;28;20022;-61
2022/11/21 06:18:47;;;;;;;156.27;61.35;;;-1.10;99.90;;;;;;4991828;28;19988;-66
2022/11/21 06:21:20;;;;;;;164.43;67.93;;;-1.10;99.90;;;;;;4990724;28;20030;-60
2022/11/21 06:23:48;;;;;;;147.95;69.15;;;-1.00;99.90;;;;;;4999753;28;20030;-59
2022/11/21 06:26:16;;;;;;;160.93;70.28;;;-1.10;99.90;;;;;;4998260;28;20081;-63
2022/11/21 06:28:43;;;;;;;166.13;69.70;;;-1.10;99.90;;;;;;4979273;28;20037;-62
2022/11/21 06:31:18;;;;;;;160.98;70.43;;;-1.00;99.90;;;;;;4991789;28;20034;-62
2022/11/21 06:33:45;;;;;;;161.95;69.60;;;-1.00;99.90;;;;;;4989277;28;20030;-61
2022/11/21 06:36:13;;;;;;;162.02;68.88;;;-1.00;99.90;;;;;;4991377;28;20026;-60
2022/11/21 06:38:39;;;;;;;160.95;73.63;;;-1.10;99.90;;;;;;4987517;28;20506;-63
2022/11/21 06:41:09;;;;;;;169.50;71.97;;;-1.00;99.90;;;;;;4991699;28;20435;-62
2022/11/21 06:43:34;;;;;;;167.27;70.57;;;-1.00;99.90;;;;;;4991555;28;20030;-64
2022/11/21 06:46:02;;;;;;;170.93;71.45;;;-1.00;99.90;;;;;;4981712;28;20027;-65
2022/11/21 06:48:29;;;;;;;157.02;67.25;;;-0.90;99.90;;;;;;4992017;28;20031;-63
2022/11/21 06:50:54;;;;;;;168.00;71.88;;;-0.90;99.90;;;;;;5007959;28;20038;-61
2022/11/21 06:53:20;;;;;;;166.18;68.85;;;-0.80;99.90;;;;;;4992916;28;20041;-66
2022/11/21 06:55:46;;;;;;;170.60;73.20;;;-0.80;99.90;;;;;;4992830;28;20452;-63
2022/11/21 06:58:11;;;;;;;177.25;71.22;;;-0.70;99.90;;;;;;4992432;28;20475;-63
2022/11/21 07:00:37;;;;;;;173.40;71.97;;;-0.70;99.90;;;;;;4992561;28;20027;-62
2022/11/21 07:03:03;;;;;;;173.85;71.93;;;-0.60;99.90;;;;;;4992693;28;20516;-61
2022/11/21 07:05:30;;;;;;;160.98;71.15;;;-0.50;99.90;;;;;;4992465;28;20107;-63
2022/11/21 07:07:59;;;;;;;152.23;65.35;;;-0.50;99.90;;;;;;4992806;28;20109;-61
2022/11/21 07:10:25;;;;;;;153.00;64.85;;;-0.40;99.90;;;;;;4992609;28;20030;-60
2022/11/21 07:15:35;;;;;;;154.52;64.93;;;-0.20;99.90;;;;;;4992396;28;20037;-62
2022/11/21 07:18:01;;;;;;;154.48;65.55;;;-0.20;99.90;;;;;;4974769;28;20038;-64
2022/11/21 07:20:27;;;;;;;157.77;69.10;;;-0.10;99.90;;;;;;4992456;28;20022;-62
2022/11/21 07:22:54;;;;;;;152.80;68.53;;;0.00;99.90;;;;;;4992066;28;20768;-64
2022/11/21 07:25:20;;;;;;;149.65;68.35;;;0.00;99.90;;;;;;4992165;28;20030;-59
2022/11/21 07:27:45;;;;;;;168.73;73.50;;;0.10;99.90;;;;;;4992100;28;20034;-63
2022/11/21 07:30:12;;;;;;;159.05;70.00;;;0.20;99.90;;;;;;4998290;28;20053;-60
2022/11/21 07:32:37;;;;;;;161.70;77.28;;;0.20;99.90;;;;;;4997360;28;20034;-64
2022/11/21 07:35:03;;;;;;;175.75;76.90;;;0.30;99.90;;;;;;4991082;28;20041;-63
2022/11/21 07:37:29;;;;;;;181.25;81.75;;;0.40;99.90;;;;;;4990941;28;20042;-66
2022/11/21 07:39:55;;;;;;;170.75;78.65;;;0.40;99.90;;;;;;4991291;28;20065;-64
2022/11/21 07:42:21;;;;;;;158.88;75.32;;;0.50;99.90;;;;;;4958351;28;20058;-62
2022/11/21 07:44:46;;;;;;;165.10;77.72;;;0.50;99.90;;;;;;4974516;28;20522;-60
2022/11/21 07:47:12;;;;;;;165.57;77.05;;;0.60;99.90;;;;;;4992059;28;20034;-59
2022/11/21 07:49:37;;;;;;;153.45;71.95;;;0.60;99.90;;;;;;4991619;28;20030;-59
2022/11/21 07:52:03;;;;;;;157.95;74.28;;;0.70;99.90;;;;;;4991699;28;20026;-61
2022/11/21 07:54:29;;;;;;;155.95;74.90;;;0.70;99.90;;;;;;4991398;28;20029;-62
2022/11/21 07:56:54;;;;;;;157.65;73.15;;;0.80;99.90;;;;;;4991303;28;20027;-63
2022/11/21 07:59:20;;;;;;;152.30;71.00;;;0.80;99.90;;;;;;4961941;28;20182;-62
2022/11/21 08:01:46;;;;;;;171.25;80.57;;;0.80;99.90;;;;;;4981001;28;20034;-63
2022/11/21 08:04:11;;;;;;;161.00;73.05;;;0.80;99.90;;;;;;4991209;28;20031;-65
2022/11/21 08:06:37;;;;;;;157.40;75.20;;;0.80;99.90;;;;;;4991816;28;20120;-57
2022/11/21 08:09:03;;;;;;;160.65;75.82;;;0.90;99.90;;;;;;4991663;28;20023;-61
2022/11/21 08:11:29;;;;;;;155.80;73.65;;;1.10;99.90;;;;;;4990894;28;21510;-59
2022/11/21 08:13:57;;;;;;;140.60;69.25;;;1.10;99.90;;;;;;4990953;28;20038;-62
2022/11/21 08:16:26;;;;;;;144.75;70.70;;;1.30;99.90;;;;;;4990832;28;20117;-61
2022/11/21 08:18:52;;;;;;;139.25;71.57;;;1.50;99.90;;;;;;4989449;28;20073;-62
2022/11/21 08:21:18;;;;;;;131.60;63.40;;;1.70;99.90;;;;;;4989525;28;20507;-64
2022/11/21 08:23:44;;;;;;;114.93;57.40;;;2.00;99.90;;;;;;4988605;28;20034;-64
2022/11/21 08:26:09;;;;;;;93.15;49.97;;;2.40;99.90;;;;;;4988306;28;20025;-59
2022/11/21 08:28:35;;;;;;;94.53;47.00;;;2.70;99.90;;;;;;4988441;28;20117;-58
2022/11/21 08:31:05;;;;;;;89.47;45.72;;;2.90;99.90;;;;;;4988115;28;20054;-58
2022/11/21 08:33:31;;;;;;;79.80;40.03;;;3.20;99.90;;;;;;4989265;28;20037;-57
2022/11/21 08:35:57;;;;;;;82.35;40.50;;;3.50;99.90;;;;;;4989179;28;20113;-61
2022/11/21 08:38:23;;;;;;;75.72;40.30;;;3.60;99.90;;;;;;4989381;28;20117;-64
2022/11/21 08:42:01;;;;;;;69.78;35.15;;;3.80;99.90;;;;;;4988198;28;20038;-63
2022/11/21 08:43:37;;;;;;;;;;;3.90;99.90;;;;;;4990331;28;20030;-59
2022/11/21 08:46:02;;;;;;;50.25;27.13;;;3.80;99.90;;;;;;4987841;28;19941;-58
2022/11/21 08:48:28;;;;;;;62.88;34.83;;;3.90;99.90;;;;;;4988432;28;20394;-61
2022/11/21 08:50:56;;;;;;;52.60;28.23;;;3.90;99.90;;;;;;4991119;28;20114;-64
2022/11/21 08:53:22;;;;;;;56.47;29.40;;;3.80;99.90;;;;;;4990567;28;20109;-61
2022/11/21 08:55:47;;;;;;;48.38;26.90;;;4.10;99.90;;;;;;4990485;28;20516;-61
2022/11/21 08:58:13;;;;;;;46.00;23.33;;;4.40;99.90;;;;;;4990449;28;20077;-62
2022/11/21 09:00:39;;;;;;;41.90;21.65;;;4.70;99.90;;;;;;4990827;28;20033;-64
2022/11/21 09:03:05;;;;;;;44.40;22.52;;;4.70;99.90;;;;;;4991009;28;20873;-62
2022/11/21 09:05:32;;;;;;;42.53;22.05;;;4.90;99.90;;;;;;4990666;28;20034;-64
2022/11/21 09:07:58;;;;;;;43.85;23.67;;;4.80;99.90;;;;;;4989410;28;20030;-60
2022/11/21 09:10:25;;;;;;;49.10;26.48;;;4.70;99.90;;;;;;4988475;28;20691;-62
2022/11/21 09:12:51;;;;;;;53.03;27.92;;;4.80;99.90;;;;;;4988766;28;20521;-60
2022/11/21 09:18:02;;;;;;;53.50;28.38;;;4.90;99.90;;;;;;4989009;28;20034;-64
2022/11/21 09:20:28;;;;;;;;;;;5.00;99.90;;;;;;4989204;28;20026;-61
2022/11/21 09:22:53;;;;;;;48.28;27.25;;;4.90;99.90;;;;;;4989396;28;20307;-64
2022/11/21 09:25:19;;;;;;;46.90;26.95;;;5.10;99.90;;;;;;4990561;28;20065;-65
2022/11/21 09:27:45;;;;;;;49.47;27.73;;;5.40;99.90;;;;;;4990553;28;20534;-60
2022/11/21 09:30:10;;;;;;;47.25;25.92;;;5.40;99.90;;;;;;5001819;28;20645;-59
2022/11/21 09:32:36;;;;;;;46.25;26.35;;;5.10;99.90;;;;;;5010153;28;20022;-58
2022/11/21 09:35:02;;;;;;;53.22;28.00;;;4.90;99.90;;;;;;5010193;28;20112;-61
2022/11/21 09:37:28;;;;;;;51.80;27.05;;;4.90;99.90;;;;;;4992485;28;20535;-63
2022/11/21 09:39:54;;;;;;;46.95;26.98;;;4.90;99.90;;;;;;5010113;28;20026;-57
2022/11/21 09:42:26;;;;;;;56.33;28.27;;;4.90;99.90;;;;;;5010145;28;20037;-59
2022/11/21 09:45:09;;;;;;;52.22;27.80;;;4.70;99.90;;;;;;5009763;28;20087;-61
2022/11/21 09:47:41;;;;;;;53.15;28.73;;;4.70;99.90;;;;;;4979824;28;20026;-61
2022/11/21 09:50:46;;;;;;;55.40;30.90;;;4.70;99.90;;;;;;4990109;28;20485;-66
2022/11/21 09:53:32;;;;;;;65.60;33.40;;;4.70;99.90;;;;;;4988023;28;20110;-61
2022/11/21 09:56:03;;;;;;;59.38;32.35;;;5.00;99.90;;;;;;4991495;28;20034;-58
2022/11/21 09:59:05;;;;;;;65.20;36.00;;;5.00;99.90;;;;;;4993809;28;20074;-63
2022/11/21 10:01:30;;;;;;;64.57;33.35;;;5.10;99.90;;;;;;4993955;28;20114;-63
2022/11/21 10:03:56;;;;;;;60.10;31.33;;;5.50;99.90;;;;;;4993732;28;20122;-61
2022/11/21 10:06:26;;;;;;;49.85;26.30;;;5.60;99.90;;;;;;4993668;28;20852;-61
2022/11/21 10:09:24;;;;;;;44.05;23.73;;;6.10;99.90;;;;;;4993713;28;20037;-63
2022/11/21 10:15:11;;;;;;;43.38;21.50;;;6.60;99.90;;;;;;4993446;28;20081;-59
2022/11/21 10:17:42;;;;;;;40.03;21.05;;;6.90;99.90;;;;;;4993642;28;20049;-62
2022/11/21 10:20:49;;;;;;;38.35;19.25;;;6.90;99.90;;;;;;4993690;28;20029;-63
2022/11/21 10:23:31;;;;;;;33.70;16.38;;;6.80;99.90;;;;;;4952269;29;20616;-59
2022/11/21 10:26:13;;;;;;;29.92;15.88;;;7.20;99.90;;;;;;4991062;28;20497;-62
2022/11/21 10:28:41;;;;;;;25.20;12.95;;;7.50;99.90;;;;;;4993595;28;20065;-62
2022/11/21 10:31:13;;;;;;;25.75;13.18;;;7.30;99.90;;;;;;4992192;28;20608;-64
2022/11/21 10:33:39;;;;;;;25.30;13.38;;;7.20;99.90;;;;;;4992241;28;20061;-61
2022/11/21 10:36:33;;;;;;;26.73;13.40;;;7.30;99.90;;;;;;4992847;28;20473;-63
2022/11/21 10:39:45;;;;;;;25.60;13.13;;;7.30;99.90;;;;;;4993309;28;20075;-62
2022/11/21 10:42:31;;;;;;;25.00;12.82;;;7.10;99.90;;;;;;4992277;28;20065;-63
2022/11/21 10:45:21;;;;;;;26.52;13.60;;;6.90;99.90;;;;;;4991722;28;20062;-62
2022/11/21 10:47:51;;;;;;;25.65;13.60;;;6.90;99.90;;;;;;4988657;28;20022;-63
2022/11/21 10:50:59;;;;;;;25.30;13.98;;;6.50;99.90;;;;;;4991704;28;20040;-62
2022/11/21 10:56:25;;;;;;;26.63;13.77;;;6.20;99.90;;;;;;4990486;28;20061;-59
2022/11/21 10:59:12;;;;;;;23.63;12.38;;;6.20;99.90;;;;;;4990769;28;20635;-61
2022/11/21 11:01:38;;;;;;;24.88;11.77;;;6.00;99.90;;;;;;4991565;28;20117;-58
2022/11/21 11:04:05;;;;;;;27.52;13.77;;;6.10;99.90;;;;;;4993462;28;20108;-59
2022/11/21 11:06:31;;;;;;;25.77;13.88;;;6.20;99.90;;;;;;5002021;28;20036;-57
2022/11/21 11:08:57;;;;;;;30.45;14.13;;;6.10;99.90;;;;;;4997169;28;20026;-55
2022/11/21 11:11:25;;;;;;;25.10;12.60;;;6.10;99.90;;;;;;4990773;28;20064;-58
2022/11/21 11:14:01;;;;;;;23.42;11.85;;;5.90;99.90;;;;;;4990579;28;20088;-59
2022/11/21 11:16:30;;;;;;;23.58;12.32;;;5.90;99.90;;;;;;4989446;28;20049;-63
2022/11/21 11:19:01;;;;;;;24.55;12.68;;;5.90;99.90;;;;;;4992218;28;20030;-56
2022/11/21 11:21:43;;;;;;;21.80;11.07;;;5.80;99.90;;;;;;4996648;28;20026;-62
2022/11/21 11:24:08;;;;;;;24.27;11.68;;;5.80;99.90;;;;;;4998271;28;20022;-58
2022/11/21 11:26:50;;;;;;;28.67;11.75;;;5.90;99.90;;;;;;4995804;28;20388;-59
2022/11/21 11:29:21;;;;;;;22.10;11.20;;;5.90;99.90;;;;;;4991706;28;20065;-62
2022/11/21 11:31:59;;;;;;;22.90;12.65;;;5.80;99.90;;;;;;4997543;28;20033;-60
2022/11/21 11:34:34;;;;;;;;;;;5.90;99.90;;;;;;4997844;28;20033;-61
2022/11/21 11:37:14;;;;;;;25.23;11.43;;;5.90;99.90;;;;;;4999638;28;19917;-61
2022/11/21 11:40:08;;;;;;;19.48;11.07;;;5.90;99.90;;;;;;4999383;28;20030;-61
2022/11/21 11:48:38;;;;;;;29.40;14.57;;;5.80;99.90;;;;;;4997293;28;20454;-62
2022/11/21 11:51:26;;;;;;;23.13;12.10;;;5.80;99.90;;;;;;4999761;28;20124;-57
2022/11/21 11:53:59;;;;;;;25.92;12.88;;;5.80;99.90;;;;;;4996963;28;20081;-60
2022/11/21 11:56:32;;;;;;;20.98;10.85;;;5.80;99.90;;;;;;4993698;28;20034;-57
2022/11/21 11:59:28;;;;;;;22.85;11.55;;;5.80;99.90;;;;;;4983770;28;20034;-65
2022/11/21 12:02:15;;;;;;;23.35;11.85;;;5.80;99.90;;;;;;5002192;28;20775;-59
2022/11/21 12:04:56;;;;;;;18.25;9.60;;;5.80;99.90;;;;;;4996282;28;20029;-61
2022/11/21 12:07:34;;;;;;;21.30;12.38;;;5.80;99.90;;;;;;4997383;28;20413;-64
2022/11/21 12:10:28;;;;;;;25.58;12.55;;;5.80;99.90;;;;;;4996810;28;20101;-57
2022/11/21 12:13:13;;;;;;;23.48;11.68;;;5.90;99.90;;;;;;4997116;28;20026;-56
2022/11/21 12:15:51;;;;;;;20.55;10.90;;;6.00;99.90;;;;;;5000611;28;20052;-61
2022/11/21 12:18:19;;;;;;;23.42;12.27;;;5.90;99.90;;;;;;4998008;28;20034;-58
2022/11/21 12:20:58;;;;;;;17.92;10.13;;;5.90;99.90;;;;;;4986709;28;20019;-59
2022/11/21 12:23:46;;;;;;;21.10;9.98;;;6.00;99.90;;;;;;4988716;28;20044;-61
2022/11/21 12:26:35;;;;;;;21.33;10.90;;;5.90;99.90;;;;;;4974237;28;20031;-56
2022/11/21 12:29:27;;;;;;;19.95;10.63;;;5.90;99.90;;;;;;4988009;28;20038;-58
2022/11/21 12:32:04;;;;;;;23.85;12.40;;;5.90;99.90;;;;;;4986453;28;20026;-60
2022/11/21 12:35:16;;;;;;;20.45;11.23;;;5.90;99.90;;;;;;4989135;28;20458;-58
2022/11/21 12:38:07;;;;;;;22.38;11.02;;;5.90;99.90;;;;;;4986219;28;20077;-62
2022/11/21 12:44:11;;;;;;;19.13;9.27;;;5.90;99.90;;;;;;4971224;28;20141;-57
2022/11/21 12:46:54;;;;;;;21.38;11.00;;;5.80;99.90;;;;;;4984088;28;20022;-58
2022/11/21 12:55:40;;;;;;;21.20;11.55;;;5.70;99.90;;;;;;4966187;28;20445;-61
2022/11/21 12:58:27;;;;;;;21.13;11.65;;;5.70;99.90;;;;;;4968080;28;20027;-62
2022/11/21 13:01:21;;;;;;;22.80;11.63;;;5.70;99.90;;;;;;4966044;28;20025;-58
2022/11/21 13:03:55;;;;;;;18.85;10.40;;;5.70;99.90;;;;;;4963880;28;20023;-55
2022/11/21 13:06:26;;;;;;;23.42;11.50;;;5.70;99.90;;;;;;4968565;28;20482;-56
2022/11/21 13:08:54;;;;;;;21.17;10.90;;;5.70;99.90;;;;;;4953495;28;20034;-55
2022/11/21 13:12:00;;;;;;;20.02;10.90;;;5.70;99.90;;;;;;4969683;28;20058;-56
2022/11/21 13:14:45;;;;;;;21.88;10.68;;;5.70;99.90;;;;;;4969703;28;20031;-55
2022/11/21 13:17:28;;;;;;;23.80;12.05;;;5.80;99.90;;;;;;4969429;28;20028;-56
2022/11/21 13:19:58;;;;;;;22.65;12.32;;;5.90;99.90;;;;;;4968140;28;20038;-56